Time,TemperatureF,DewpointF,PressureIn,WindDirection,WindDirectionDegrees,WindSpeedMPH,WindSpeedGustMPH,Humidity,HourlyPrecipIn,Conditions,Clouds,dailyrainin,SolarRadiationWatts/m^2,SoftwareType,DateUTC
2013-11-17 00:01:00,51.3,47.3,30.21,SSE,150,0.6,6.0,86,0.00,-DZ,,0.00,0.0,WeatherDisplay:10.37,2013-11-17 05:01:00,
2013-11-17 00:02:00,51.3,47.3,30.22,SSE,150,1.0,5.8,86,0.00,-DZ,,0.00,0.0,WeatherDisplay:10.37,2013-11-17 05:02:00,
2013-11-17 00:04:00,51.3,47.3,30.21,SSE,150,0.3,3.5,86,0.00,-DZ,,0.00,0.0,WeatherDisplay:10.37,2013-11-17 05:04:00,
2013-11-17 00:06:00,51.3,47.3,30.21,SE,146,2.8,9.0,86,0.00,-DZ,,0.00,0.0,WeatherDisplay:10.37,2013-11-17 05:06:00,
2013-11-17 00:11:00,51.4,47.4,30.21,SE,144,4.0,9.2,86,0.00,-DZ,,0.00,0.0,WeatherDisplay:10.37,2013-11-17 05:11:00,
2013-11-17 00:16:00,51.4,47.4,30.21,SSE,155,5.2,7.5,86,0.00,-DZ,,0.00,0.0,WeatherDisplay:10.37,2013-11-17 05:16:00,
2013-11-17 00:21:00,51.6,47.5,30.21,SSE,147,7.5,15.0,86,0.00,-DZ,,0.00,0.0,WeatherDisplay:10.37,2013-11-17 05:21:00,
2013-11-17 00:26:00,51.6,47.2,30.20,SE,138,3.5,4.6,85,0.00,-DZ,,0.00,0.0,WeatherDisplay:10.37,2013-11-17 05:26:00,
2013-11-17 00:31:00,51.6,47.2,30.20,SSE,149,5.1,8.1,85,0.00,-DZ,,0.00,0.0,WeatherDisplay:10.37,2013-11-17 05:31:00,
2013-11-17 00:36:00,51.6,47.2,30.20,South,169,5.4,9.2,85,0.00,-DZ,,0.00,0.0,WeatherDisplay:10.37,2013-11-17 05:36:00,
2013-11-17 00:41:00,51.6,47.2,30.20,SSE,155,5.1,9.2,85,0.00,-DZ,,0.00,0.0,WeatherDisplay:10.37,2013-11-17 05:41:00,
2013-11-17 00:46:00,51.6,47.2,30.20,SSE,153,10.8,16.5,85,0.00,-DZ,,0.00,0.0,WeatherDisplay:10.37,2013-11-17 05:46:00,
2013-11-17 00:51:00,51.6,47.2,30.20,SSE,157,6.7,9.2,85,0.00,-DZ,,0.00,0.0,WeatherDisplay:10.37,2013-11-17 05:51:00,
2013-11-17 00:56:00,51.6,47.2,30.20,SE,140,3.0,4.6,85,0.00,-DZ,,0.00,0.0,WeatherDisplay:10.37,2013-11-17 05:56:00,
2013-11-17 01:01:00,51.6,47.5,30.20,SSE,155,8.9,9.2,86,0.00,-DZ,,0.00,0.0,WeatherDisplay:10.37,2013-11-17 06:01:00,
2013-11-17 01:06:00,51.7,47.6,30.19,SSE,153,8.8,15.0,86,0.00,-DZ,,0.00,0.0,WeatherDisplay:10.37,2013-11-17 06:06:00,
2013-11-17 01:11:00,51.7,47.6,30.19,SSE,153,8.9,15.0,86,0.00,-DZ,,0.00,0.0,WeatherDisplay:10.37,2013-11-17 06:11:00,
2013-11-17 01:16:00,51.6,47.5,30.18,SSE,153,6.0,9.2,86,0.00,-DZ,,0.00,0.0,WeatherDisplay:10.37,2013-11-17 06:16:00,
2013-11-17 01:21:00,51.7,47.6,30.18,SSE,150,5.0,9.2,86,0.00,-DZ,,0.00,0.0,WeatherDisplay:10.37,2013-11-17 06:21:00,
2013-11-17 01:26:00,51.7,47.6,30.18,SSE,152,4.7,9.0,86,0.00,-DZ,,0.00,0.0,WeatherDisplay:10.37,2013-11-17 06:26:00,
2013-11-17 01:31:00,51.7,47.6,30.18,South,172,9.2,15.0,86,0.00,-DZ,,0.00,0.0,WeatherDisplay:10.37,2013-11-17 06:31:00,
2013-11-17 01:36:00,51.9,47.5,30.18,SE,137,9.1,13.8,85,0.00,-DZ,,0.00,0.0,WeatherDisplay:10.37,2013-11-17 06:36:00,
2013-11-17 01:41:00,52.0,47.6,30.18,SSE,157,5.1,6.0,85,0.00,-DZ,,0.00,0.0,WeatherDisplay:10.37,2013-11-17 06:41:00,
2013-11-17 01:46:00,52.2,47.8,30.18,SE,143,5.6,13.8,85,0.00,-DZ,,0.00,0.0,WeatherDisplay:10.37,2013-11-17 06:46:00,
2013-11-17 01:51:00,52.2,47.5,30.18,SSE,151,3.3,9.0,84,0.00,-DZ,,0.00,0.0,WeatherDisplay:10.37,2013-11-17 06:51:00,
2013-11-17 01:56:00,52.3,47.6,30.18,SE,142,8.5,13.8,84,0.00,-DZ,,0.00,0.0,WeatherDisplay:10.37,2013-11-17 06:56:00,
2013-11-17 02:01:00,52.5,47.8,30.18,SSE,151,13.4,15.0,84,0.00,-DZ,,0.00,0.0,WeatherDisplay:10.37,2013-11-17 07:01:00,
2013-11-17 02:06:00,52.5,47.5,30.17,SSE,152,9.5,9.5,83,0.00,-DZ,,0.00,0.0,WeatherDisplay:10.37,2013-11-17 07:06:00,
2013-11-17 02:11:00,52.5,47.5,30.17,SSE,151,6.8,10.4,83,0.00,-DZ,,0.00,0.0,WeatherDisplay:10.37,2013-11-17 07:11:00,
2013-11-17 02:16:00,52.5,47.5,30.17,SE,143,12.8,15.0,83,0.00,-DZ,,0.00,0.0,WeatherDisplay:10.37,2013-11-17 07:16:00,
2013-11-17 02:21:00,52.5,47.5,30.17,SSE,150,10.4,19.5,83,0.00,-DZ,,0.00,0.0,WeatherDisplay:10.37,2013-11-17 07:21:00,
2013-11-17 02:26:00,52.5,47.5,30.17,SE,128,7.1,9.2,83,0.00,-DZ,,0.00,0.0,WeatherDisplay:10.37,2013-11-17 07:26:00,
2013-11-17 02:31:00,52.5,47.5,30.16,South,171,4.4,8.1,83,0.00,-DZ,,0.00,0.0,WeatherDisplay:10.37,2013-11-17 07:31:00,
2013-11-17 02:36:00,52.6,47.6,30.16,ESE,121,11.4,13.8,83,0.00,-DZ,,0.00,0.0,WeatherDisplay:10.37,2013-11-17 07:36:00,
2013-11-17 02:41:00,52.8,47.8,30.15,SE,143,5.5,10.5,83,0.00,-DZ,,0.00,0.0,WeatherDisplay:10.37,2013-11-17 07:41:00,
2013-11-17 02:46:00,52.6,47.6,30.15,SE,127,6.8,10.4,83,0.00,-DZ,,0.00,0.0,WeatherDisplay:10.37,2013-11-17 07:46:00,
2013-11-17 02:51:00,52.5,47.5,30.15,SE,142,7.7,9.2,83,0.00,-DZ,,0.00,0.0,WeatherDisplay:10.37,2013-11-17 07:51:00,
2013-11-17 02:56:00,52.3,47.3,30.16,SE,129,6.5,10.5,83,0.00,-DZ,,0.00,0.0,WeatherDisplay:10.37,2013-11-17 07:56:00,
2013-11-17 03:01:00,52.5,47.5,30.16,SE,143,6.6,9.2,83,0.00,-DZ,,0.00,0.0,WeatherDisplay:10.37,2013-11-17 08:01:00,
2013-11-17 03:06:00,52.5,47.8,30.16,SE,139,4.2,10.4,84,0.00,-DZ,,0.00,0.0,WeatherDisplay:10.37,2013-11-17 08:06:00,
2013-11-17 03:11:00,52.6,47.9,30.16,SE,145,6.3,9.2,84,0.00,-DZ,,0.00,0.0,WeatherDisplay:10.37,2013-11-17 08:11:00,
2013-11-17 03:16:00,52.8,48.1,30.16,SE,144,17.0,23.0,84,0.00,-DZ,,0.00,0.0,WeatherDisplay:10.37,2013-11-17 08:16:00,
2013-11-17 03:21:00,52.9,47.9,30.16,ESE,103,4.4,13.8,83,0.00,-DZ,,0.00,0.0,WeatherDisplay:10.37,2013-11-17 08:21:00,
2013-11-17 03:26:00,52.8,47.8,30.15,SSE,160,5.8,8.1,83,0.00,-DZ,,0.00,0.0,WeatherDisplay:10.37,2013-11-17 08:26:00,
2013-11-17 03:31:00,52.6,47.6,30.15,SSW,193,6.7,9.0,83,0.00,-DZ,,0.00,0.0,WeatherDisplay:10.37,2013-11-17 08:31:00,
2013-11-17 03:36:00,52.6,47.9,30.15,SE,146,5.7,9.2,84,0.00,-DZ,,0.00,0.0,WeatherDisplay:10.37,2013-11-17 08:36:00,
2013-11-17 03:41:00,52.6,47.9,30.15,SSE,150,5.0,10.5,84,0.00,-DZ,,0.00,0.0,WeatherDisplay:10.37,2013-11-17 08:41:00,
2013-11-17 03:46:00,52.6,47.9,30.15,SSE,147,3.2,8.1,84,0.00,-DZ,,0.00,0.0,WeatherDisplay:10.37,2013-11-17 08:46:00,
2013-11-17 03:51:00,52.6,47.9,30.15,SSE,160,4.6,10.4,84,0.00,-DZ,,0.00,0.0,WeatherDisplay:10.37,2013-11-17 08:51:00,
2013-11-17 03:56:00,52.6,47.9,30.15,SSE,158,7.4,15.0,84,0.00,-DZ,,0.00,0.0,WeatherDisplay:10.37,2013-11-17 08:56:00,
2013-11-17 04:01:00,52.6,47.9,30.15,SSE,159,9.4,15.0,84,0.00,-DZ,,0.00,0.0,WeatherDisplay:10.37,2013-11-17 09:01:00,
2013-11-17 04:06:00,52.6,47.9,30.15,SSW,196,1.8,4.5,84,0.00,-DZ,,0.00,0.0,WeatherDisplay:10.37,2013-11-17 09:06:00,
2013-11-17 04:11:00,52.6,47.9,30.15,SSE,164,0.4,1.2,84,0.00,-DZ,,0.00,0.0,WeatherDisplay:10.37,2013-11-17 09:11:00,
2013-11-17 04:16:00,52.3,47.6,30.15,ESE,112,0.0,5.8,84,0.00,-DZ,,0.00,0.0,WeatherDisplay:10.37,2013-11-17 09:16:00,
2013-11-17 04:21:00,52.2,47.5,30.14,ESE,115,1.2,4.6,84,0.00,-DZ,,0.00,0.0,WeatherDisplay:10.37,2013-11-17 09:21:00,
2013-11-17 04:26:00,52.2,47.8,30.15,SSE,150,3.2,8.1,85,0.00,-DZ,,0.00,0.0,WeatherDisplay:10.37,2013-11-17 09:26:00,
2013-11-17 04:31:00,52.3,47.9,30.14,SE,146,1.8,10.4,85,0.00,-DZ,,0.00,0.0,WeatherDisplay:10.37,2013-11-17 09:31:00,
2013-11-17 04:36:00,52.3,47.9,30.13,SSE,154,7.4,15.0,85,0.00,-DZ,,0.00,0.0,WeatherDisplay:10.37,2013-11-17 09:36:00,
2013-11-17 04:41:00,52.3,47.9,30.13,SSE,148,2.3,9.0,85,0.00,-DZ,,0.00,0.0,WeatherDisplay:10.37,2013-11-17 09:41:00,
2013-11-17 04:46:00,52.3,47.9,30.14,SSE,154,3.2,6.0,85,0.00,-DZ,,0.00,0.0,WeatherDisplay:10.37,2013-11-17 09:46:00,
2013-11-17 04:51:00,52.3,47.9,30.14,SSE,151,2.5,8.1,85,0.00,-DZ,,0.00,0.0,WeatherDisplay:10.37,2013-11-17 09:51:00,
2013-11-17 04:56:00,52.5,48.1,30.13,SSE,163,5.5,8.1,85,0.00,-DZ,,0.00,0.0,WeatherDisplay:10.37,2013-11-17 09:56:00,
2013-11-17 05:01:00,52.5,48.1,30.13,SSE,167,11.1,13.8,85,0.00,-DZ,,0.00,0.0,WeatherDisplay:10.37,2013-11-17 10:01:00,
2013-11-17 05:06:00,52.3,47.9,30.13,SSE,164,4.8,8.1,85,0.00,-DZ,,0.00,0.0,WeatherDisplay:10.37,2013-11-17 10:06:00,
2013-11-17 05:11:00,52.2,47.8,30.13,SSE,155,1.6,8.1,85,0.00,-DZ,,0.00,0.0,WeatherDisplay:10.37,2013-11-17 10:11:00,
2013-11-17 05:16:00,52.0,47.6,30.13,ESE,107,3.6,4.6,85,0.00,-DZ,,0.00,0.0,WeatherDisplay:10.37,2013-11-17 10:16:00,
2013-11-17 05:21:00,52.0,47.6,30.13,SSE,164,3.0,5.8,85,0.00,-DZ,,0.00,0.0,WeatherDisplay:10.37,2013-11-17 10:21:00,
2013-11-17 05:26:00,51.9,47.5,30.12,ESE,116,6.0,9.2,85,0.00,-DZ,,0.00,0.0,WeatherDisplay:10.37,2013-11-17 10:26:00,
2013-11-17 05:31:00,51.7,47.6,30.12,SE,128,3.9,8.1,86,0.00,-DZ,,0.00,0.0,WeatherDisplay:10.37,2013-11-17 10:31:00,
2013-11-17 05:36:00,51.7,47.6,30.11,SE,142,8.4,10.4,86,0.00,-DZ,,0.00,0.0,WeatherDisplay:10.37,2013-11-17 10:36:00,
2013-11-17 05:41:00,51.7,47.6,30.11,ESE,121,4.2,9.2,86,0.00,-DZ,,0.00,0.0,WeatherDisplay:10.37,2013-11-17 10:41:00,
2013-11-17 05:46:00,51.7,48.0,30.11,SE,143,6.4,10.4,87,0.00,-DZ,,0.00,0.0,WeatherDisplay:10.37,2013-11-17 10:46:00,
2013-11-17 05:51:00,51.9,48.2,30.11,ESE,102,8.0,10.5,87,0.00,-DZ,,0.00,0.0,WeatherDisplay:10.37,2013-11-17 10:51:00,
2013-11-17 05:56:00,51.9,48.2,30.11,SE,144,5.0,7.5,87,0.00,-DZ,,0.00,0.0,WeatherDisplay:10.37,2013-11-17 10:56:00,
2013-11-17 06:01:00,51.9,48.2,30.11,SE,139,5.5,8.1,87,0.00,,,0.00,0.0,WeatherDisplay:10.37,2013-11-17 11:01:00,
2013-11-17 06:06:00,51.9,48.2,30.10,SSE,153,7.1,9.0,87,0.00,,,0.00,0.0,WeatherDisplay:10.37,2013-11-17 11:06:00,
2013-11-17 06:11:00,51.9,48.5,30.10,SE,133,6.3,9.2,88,0.00,,,0.00,0.0,WeatherDisplay:10.37,2013-11-17 11:11:00,
2013-11-17 06:16:00,51.9,48.5,30.10,South,169,4.9,8.1,88,0.00,,,0.00,0.0,WeatherDisplay:10.37,2013-11-17 11:16:00,
2013-11-17 06:21:00,51.9,48.5,30.10,SSE,153,10.1,13.5,88,0.00,OVC,,0.00,0.0,WeatherDisplay:10.37,2013-11-17 11:21:00,
2013-11-17 06:26:00,51.9,48.5,30.10,SE,146,9.8,13.8,88,0.00,OVC,,0.00,0.0,WeatherDisplay:10.37,2013-11-17 11:26:00,
2013-11-17 06:31:00,51.9,48.5,30.11,South,173,9.6,13.8,88,0.00,OVC,,0.00,0.0,WeatherDisplay:10.37,2013-11-17 11:31:00,
2013-11-17 06:36:00,51.7,48.3,30.12,SSE,163,5.8,8.1,88,0.00,OVC,,0.00,0.0,WeatherDisplay:10.37,2013-11-17 11:36:00,
2013-11-17 06:41:00,51.7,48.3,30.12,SSE,161,6.1,13.8,88,0.00,OVC,,0.00,0.0,WeatherDisplay:10.37,2013-11-17 11:41:00,
2013-11-17 06:46:00,51.7,48.3,30.12,SSE,157,3.8,9.2,88,0.00,OVC,,0.00,0.0,WeatherDisplay:10.37,2013-11-17 11:46:00,
2013-11-17 06:51:00,51.9,48.8,30.12,South,169,8.0,15.0,89,0.00,OVC,,0.00,0.0,WeatherDisplay:10.37,2013-11-17 11:51:00,
2013-11-17 06:56:00,51.9,48.8,30.12,ESE,123,6.4,9.2,89,0.00,OVC,,0.00,0.0,WeatherDisplay:10.37,2013-11-17 11:56:00,
2013-11-17 07:01:00,51.9,48.8,30.12,SSE,157,6.1,6.1,89,0.00,OVC,,0.00,0.0,WeatherDisplay:10.37,2013-11-17 12:01:00,
2013-11-17 07:06:00,52.0,48.9,30.12,SSE,147,7.5,9.2,89,0.00,OVC,,0.00,7.0,WeatherDisplay:10.37,2013-11-17 12:06:00,
2013-11-17 07:11:00,52.0,48.9,30.12,ESE,122,5.1,8.1,89,0.00,OVC,,0.00,11.0,WeatherDisplay:10.37,2013-11-17 12:11:00,
2013-11-17 07:16:00,52.2,49.1,30.12,SE,143,4.5,16.1,89,0.00,OVC,,0.00,28.0,WeatherDisplay:10.37,2013-11-17 12:16:00,
2013-11-17 07:21:00,52.3,49.2,30.12,SSE,155,4.8,6.0,89,0.00,OVC,,0.00,37.0,WeatherDisplay:10.37,2013-11-17 12:21:00,
2013-11-17 07:26:00,52.3,49.2,30.11,SE,135,5.0,5.8,89,0.00,OVC,,0.00,37.0,WeatherDisplay:10.37,2013-11-17 12:26:00,
2013-11-17 07:31:00,52.3,49.2,30.12,SE,136,1.7,3.5,89,0.00,OVC,,0.00,47.0,WeatherDisplay:10.37,2013-11-17 12:31:00,
2013-11-17 07:36:00,52.5,49.4,30.12,SE,136,3.7,6.0,89,0.00,OVC,,0.00,49.0,WeatherDisplay:10.37,2013-11-17 12:36:00,
2013-11-17 07:41:00,52.6,49.4,30.12,SSE,149,9.0,10.4,89,0.00,OVC,,0.00,54.0,WeatherDisplay:10.37,2013-11-17 12:41:00,
2013-11-17 07:46:00,52.8,49.6,30.12,SE,144,8.4,9.2,89,0.00,OVC,,0.00,76.0,WeatherDisplay:10.37,2013-11-17 12:46:00,
2013-11-17 07:51:00,52.9,49.7,30.12,South,175,4.3,6.0,89,0.00,OVC,,0.00,91.0,WeatherDisplay:10.37,2013-11-17 12:51:00,
2013-11-17 07:56:00,53.1,49.9,30.13,SSE,148,9.8,9.8,89,0.00,OVC,,0.00,95.0,WeatherDisplay:10.37,2013-11-17 12:56:00,
2013-11-17 08:01:00,53.2,50.0,30.13,SSE,162,4.7,8.1,89,0.00,OVC,,0.00,69.0,WeatherDisplay:10.37,2013-11-17 13:01:00,
2013-11-17 08:06:00,53.2,50.0,30.12,SSE,155,6.1,6.1,89,0.00,OVC,,0.00,56.0,WeatherDisplay:10.37,2013-11-17 13:06:00,
2013-11-17 08:11:00,53.2,49.7,30.12,SSE,148,5.0,6.0,88,0.00,OVC,,0.00,51.0,WeatherDisplay:10.37,2013-11-17 13:11:00,
2013-11-17 08:16:00,53.3,49.8,30.12,South,171,6.3,10.4,88,0.00,OVC,,0.00,86.0,WeatherDisplay:10.37,2013-11-17 13:16:00,
2013-11-17 08:21:00,53.5,50.0,30.13,SE,146,8.8,11.5,88,0.00,OVC,,0.00,121.0,WeatherDisplay:10.37,2013-11-17 13:21:00,
2013-11-17 08:26:00,53.8,50.3,30.12,SE,140,8.2,13.8,88,0.00,OVC,,0.00,118.0,WeatherDisplay:10.37,2013-11-17 13:26:00,
2013-11-17 08:31:00,53.9,50.4,30.12,SE,139,6.8,10.5,88,0.00,OVC,,0.00,125.0,WeatherDisplay:10.37,2013-11-17 13:31:00,
2013-11-17 08:36:00,54.1,50.6,30.12,SSE,157,10.5,13.8,88,0.00,OVC,,0.00,162.0,WeatherDisplay:10.37,2013-11-17 13:36:00,
2013-11-17 08:41:00,54.2,50.4,30.12,SSE,159,8.4,13.5,87,0.00,OVC,,0.00,107.0,WeatherDisplay:10.37,2013-11-17 13:41:00,
2013-11-17 08:46:00,54.2,50.4,30.12,SE,146,8.2,9.0,87,0.00,OVC,,0.00,76.0,WeatherDisplay:10.37,2013-11-17 13:46:00,
2013-11-17 08:51:00,54.4,50.6,30.12,SSE,155,5.3,7.5,87,0.00,OVC,,0.00,114.0,WeatherDisplay:10.37,2013-11-17 13:51:00,
2013-11-17 08:56:00,54.4,50.3,30.12,SSE,149,6.7,9.2,86,0.00,OVC,,0.00,91.0,WeatherDisplay:10.37,2013-11-17 13:56:00,
2013-11-17 09:01:00,54.7,50.6,30.12,SSE,159,2.7,5.8,86,0.00,OVC,,0.00,111.0,WeatherDisplay:10.37,2013-11-17 14:01:00,
2013-11-17 09:06:00,54.7,50.6,30.12,ESE,123,4.8,11.5,86,0.00,OVC,,0.00,111.0,WeatherDisplay:10.37,2013-11-17 14:06:00,
2013-11-17 09:11:00,54.7,50.6,30.11,SSE,153,4.2,9.2,86,0.00,OVC,,0.00,95.0,WeatherDisplay:10.37,2013-11-17 14:11:00,
2013-11-17 09:16:00,54.8,50.7,30.11,South,172,1.3,8.1,86,0.00,OVC,,0.00,220.0,WeatherDisplay:10.37,2013-11-17 14:16:00,
2013-11-17 09:21:00,55.3,51.2,30.11,SSE,156,8.5,15.0,86,0.00,OVC,,0.00,200.0,WeatherDisplay:10.37,2013-11-17 14:21:00,
2013-11-17 09:26:00,55.7,51.3,30.11,South,169,7.8,9.2,85,0.00,OVC,,0.00,262.0,WeatherDisplay:10.37,2013-11-17 14:26:00,
2013-11-17 09:31:00,56.2,51.4,30.11,SE,146,6.0,11.5,84,0.00,OVC,,0.00,183.0,WeatherDisplay:10.37,2013-11-17 14:31:00,
2013-11-17 09:36:00,56.0,50.9,30.12,SE,135,7.6,13.8,83,0.00,OVC,,0.00,179.0,WeatherDisplay:10.37,2013-11-17 14:36:00,
2013-11-17 09:41:00,56.2,51.1,30.12,SE,144,6.5,16.1,83,0.00,OVC,,0.00,200.0,WeatherDisplay:10.37,2013-11-17 14:41:00,
2013-11-17 09:46:00,56.5,52.4,30.12,SSE,150,10.2,19.6,86,0.00,OVC,,0.00,202.0,WeatherDisplay:10.37,2013-11-17 14:46:00,
2013-11-17 09:51:00,56.3,50.5,30.13,SSE,149,12.4,15.0,81,0.00,OVC,,0.00,176.0,WeatherDisplay:10.37,2013-11-17 14:51:00,
2013-11-17 09:56:00,56.3,50.5,30.12,SSE,153,14.5,16.5,81,0.00,OVC,,0.00,206.0,WeatherDisplay:10.37,2013-11-17 14:56:00,
2013-11-17 10:01:00,56.3,50.9,30.12,South,171,10.0,15.0,82,0.00,OVC,,0.00,214.0,WeatherDisplay:10.37,2013-11-17 15:01:00,
2013-11-17 10:06:00,56.5,50.7,30.12,SE,139,8.1,13.8,81,0.00,OVC,,0.00,134.0,WeatherDisplay:10.37,2013-11-17 15:06:00,
2013-11-17 10:11:00,56.5,50.7,30.12,SE,135,13.2,15.0,81,0.00,OVC,,0.00,253.0,WeatherDisplay:10.37,2013-11-17 15:11:00,
2013-11-17 10:16:00,56.7,50.9,30.11,SE,139,15.0,16.1,81,0.00,OVC,,0.00,322.0,WeatherDisplay:10.37,2013-11-17 15:16:00,
2013-11-17 10:21:00,57.2,51.4,30.11,SE,144,12.0,15.0,81,0.00,OVC,,0.00,318.0,WeatherDisplay:10.37,2013-11-17 15:21:00,
2013-11-17 10:27:00,57.5,51.4,30.11,SSE,160,16.2,18.4,80,0.00,OVC,,0.00,394.0,WeatherDisplay:10.37,2013-11-17 15:27:00,
2013-11-17 10:32:00,58.4,51.9,30.10,SE,146,12.5,18.4,79,0.00,OVC,,0.00,575.0,WeatherDisplay:10.37,2013-11-17 15:32:00,
2013-11-17 10:37:00,59.2,52.3,30.09,SE,145,11.1,18.0,78,0.00,OVC,,0.00,473.0,WeatherDisplay:10.37,2013-11-17 15:37:00,
2013-11-17 10:42:00,59.5,51.9,30.09,SSE,153,15.7,22.5,76,0.00,OVC,,0.00,457.0,WeatherDisplay:10.37,2013-11-17 15:42:00,
2013-11-17 10:47:00,59.3,51.4,30.08,SSE,147,9.1,13.8,75,0.00,OVC,,0.00,452.0,WeatherDisplay:10.37,2013-11-17 15:47:00,
2013-11-17 10:52:00,59.8,51.5,30.08,SE,139,12.5,18.4,74,0.00,OVC,,0.00,450.0,WeatherDisplay:10.37,2013-11-17 15:52:00,
2013-11-17 10:57:00,59.8,51.5,30.08,East,98,13.1,16.5,74,0.00,OVC,,0.00,450.0,WeatherDisplay:10.37,2013-11-17 15:57:00,
2013-11-17 11:02:00,59.5,50.8,30.08,South,171,14.8,18.4,73,0.00,OVC,,0.00,251.0,WeatherDisplay:10.37,2013-11-17 16:02:00,
2013-11-17 11:07:00,59.0,50.7,30.08,SE,139,10.3,15.0,74,0.00,OVC,,0.00,251.0,WeatherDisplay:10.37,2013-11-17 16:07:00,
2013-11-17 11:12:00,58.9,51.0,30.08,SE,140,15.0,19.5,75,0.00,OVC,,0.00,445.0,WeatherDisplay:10.37,2013-11-17 16:12:00,
2013-11-17 11:17:00,58.9,51.0,30.08,SSE,156,14.7,24.2,75,0.00,OVC,,0.00,343.0,WeatherDisplay:10.37,2013-11-17 16:17:00,
2013-11-17 11:22:00,58.9,51.3,30.07,SSE,153,10.7,18.4,76,0.00,OVC,,0.00,353.0,WeatherDisplay:10.37,2013-11-17 16:22:00,
2013-11-17 11:27:00,59.0,51.1,30.07,SE,145,12.8,20.7,75,0.00,OVC,,0.00,311.0,WeatherDisplay:10.37,2013-11-17 16:27:00,
2013-11-17 11:32:00,59.0,51.1,30.07,South,171,11.6,18.4,75,0.00,BKN,,0.00,241.0,WeatherDisplay:10.37,2013-11-17 16:32:00,
2013-11-17 11:37:00,59.5,51.9,30.07,ESE,105,14.6,16.5,76,0.00,BKN,,0.00,406.0,WeatherDisplay:10.37,2013-11-17 16:37:00,
2013-11-17 11:42:00,59.8,51.9,30.06,SE,144,10.7,15.0,75,0.00,BKN,,0.00,327.0,WeatherDisplay:10.37,2013-11-17 16:42:00,
2013-11-17 11:47:00,59.9,51.6,30.06,SE,143,9.2,16.1,74,0.00,BKN,,0.00,339.0,WeatherDisplay:10.37,2013-11-17 16:47:00,
2013-11-17 11:52:00,59.9,51.6,30.05,SE,137,10.4,13.8,74,0.00,BKN,,0.00,294.0,WeatherDisplay:10.37,2013-11-17 16:52:00,
2013-11-17 11:57:00,59.6,51.3,30.05,SSE,161,12.3,18.4,74,0.00,BKN,,0.00,350.0,WeatherDisplay:10.37,2013-11-17 16:57:00,
2013-11-17 12:02:00,59.6,51.3,30.04,SE,141,15.2,18.0,74,0.00,BKN,,0.00,424.0,WeatherDisplay:10.37,2013-11-17 17:02:00,
2013-11-17 12:07:00,59.9,51.6,30.04,SSE,151,14.5,19.6,74,0.00,BKN,,0.00,406.0,WeatherDisplay:10.37,2013-11-17 17:07:00,
2013-11-17 12:12:00,59.8,51.5,30.04,South,171,10.1,23.0,74,0.00,BKN,,0.00,241.0,WeatherDisplay:10.37,2013-11-17 17:12:00,
2013-11-17 12:17:00,59.5,51.2,30.04,SSE,160,13.7,20.7,74,0.00,BKN,,0.00,264.0,WeatherDisplay:10.37,2013-11-17 17:17:00,
2013-11-17 12:22:00,59.2,51.3,30.04,SSE,153,15.5,18.4,75,0.00,BKN,,0.00,246.0,WeatherDisplay:10.37,2013-11-17 17:22:00,
2013-11-17 12:27:00,59.2,51.6,30.03,East,86,8.0,18.4,76,0.00,BKN,,0.00,299.0,WeatherDisplay:10.37,2013-11-17 17:27:00,
2013-11-17 12:32:00,59.3,51.7,30.04,SSE,155,8.8,18.4,76,0.00,BKN,,0.00,287.0,WeatherDisplay:10.37,2013-11-17 17:32:00,
2013-11-17 12:37:00,59.5,51.9,30.03,SSE,149,8.6,12.0,76,0.00,BKN,,0.00,271.0,WeatherDisplay:10.37,2013-11-17 17:37:00,
2013-11-17 12:42:00,59.5,51.6,30.03,SSE,147,15.2,18.4,75,0.00,BKN,,0.00,269.0,WeatherDisplay:10.37,2013-11-17 17:42:00,
2013-11-17 12:47:00,59.5,51.9,30.03,ESE,121,10.7,15.0,76,0.00,BKN,,0.00,287.0,WeatherDisplay:10.37,2013-11-17 17:47:00,
2013-11-17 12:52:00,59.6,52.0,30.02,SE,144,10.5,13.5,76,0.00,BKN,,0.00,253.0,WeatherDisplay:10.37,2013-11-17 17:52:00,
2013-11-17 12:57:00,59.6,51.7,30.02,SSE,152,11.6,15.0,75,0.00,BKN,,0.00,244.0,WeatherDisplay:10.37,2013-11-17 17:57:00,
2013-11-17 13:02:00,59.5,51.9,30.02,SSE,158,10.2,13.5,76,0.00,BKN,,0.00,221.0,WeatherDisplay:10.37,2013-11-17 18:02:00,
2013-11-17 13:07:00,59.3,51.7,30.01,SE,136,14.5,18.4,76,0.00,OVC,,0.00,197.0,WeatherDisplay:10.37,2013-11-17 18:07:00,
2013-11-17 13:12:00,59.5,51.9,30.01,SE,138,9.0,9.2,76,0.00,OVC,,0.00,216.0,WeatherDisplay:10.37,2013-11-17 18:12:00,
2013-11-17 13:17:00,59.6,52.0,30.01,SSE,153,10.0,11.5,76,0.00,OVC,,0.00,223.0,WeatherDisplay:10.37,2013-11-17 18:17:00,
2013-11-17 13:22:00,59.8,52.2,30.01,SE,145,12.6,19.5,76,0.00,OVC,,0.00,207.0,WeatherDisplay:10.37,2013-11-17 18:22:00,
2013-11-17 13:27:00,59.9,52.0,30.01,SE,131,12.4,15.0,75,0.00,OVC,,0.00,167.0,WeatherDisplay:10.37,2013-11-17 18:27:00,
2013-11-17 13:32:00,59.9,52.0,30.01,SSE,150,12.3,13.5,75,0.00,OVC,,0.00,174.0,WeatherDisplay:10.37,2013-11-17 18:32:00,
2013-11-17 13:37:00,59.9,52.0,30.00,SE,145,12.5,18.4,75,0.00,OVC,,0.00,174.0,WeatherDisplay:10.37,2013-11-17 18:37:00,
2013-11-17 13:42:00,59.9,52.0,30.00,SW,223,10.3,16.5,75,0.00,OVC,,0.00,162.0,WeatherDisplay:10.37,2013-11-17 18:42:00,
2013-11-17 13:47:00,59.9,52.0,30.00,SSE,156,14.1,15.0,75,0.00,OVC,,0.00,172.0,WeatherDisplay:10.37,2013-11-17 18:47:00,
2013-11-17 13:52:00,59.9,52.0,30.00,SSE,152,11.5,19.6,75,0.00,OVC,,0.00,176.0,WeatherDisplay:10.37,2013-11-17 18:52:00,
2013-11-17 13:57:00,60.1,52.1,30.00,SSE,154,8.0,13.8,75,0.00,OVC,,0.00,165.0,WeatherDisplay:10.37,2013-11-17 18:57:00,
2013-11-17 14:02:00,60.2,52.2,30.00,SSE,160,9.7,10.4,75,0.00,OVC,,0.00,162.0,WeatherDisplay:10.37,2013-11-17 19:02:00,
2013-11-17 14:07:00,60.2,52.2,29.99,SE,137,7.1,10.4,75,0.00,OVC,,0.00,155.0,WeatherDisplay:10.37,2013-11-17 19:07:00,
2013-11-17 14:12:00,60.1,52.1,29.99,South,170,10.2,11.5,75,0.00,BKN,,0.00,146.0,WeatherDisplay:10.37,2013-11-17 19:12:00,
2013-11-17 14:17:00,60.1,52.1,29.99,SSE,150,8.6,9.2,75,0.00,BKN,,0.00,137.0,WeatherDisplay:10.37,2013-11-17 19:17:00,
2013-11-17 14:22:00,59.9,52.0,29.98,SSE,165,7.6,13.5,75,0.00,BKN,,0.00,128.0,WeatherDisplay:10.37,2013-11-17 19:22:00,
2013-11-17 14:27:00,59.8,51.9,29.98,SSE,168,9.4,13.8,75,0.00,BKN,,0.00,123.0,WeatherDisplay:10.37,2013-11-17 19:27:00,
2013-11-17 14:32:00,59.6,52.0,29.98,South,172,13.7,15.0,76,0.00,BKN,,0.00,114.0,WeatherDisplay:10.37,2013-11-17 19:32:00,
2013-11-17 14:37:00,59.5,51.9,29.97,SE,144,11.7,19.6,76,0.00,OVC,,0.00,111.0,WeatherDisplay:10.37,2013-11-17 19:37:00,
2013-11-17 14:42:00,59.3,52.1,29.97,SE,134,16.7,19.5,77,0.00,OVC,,0.00,109.0,WeatherDisplay:10.37,2013-11-17 19:42:00,
2013-11-17 14:47:00,59.3,52.1,29.97,SSE,162,10.0,16.1,77,0.00,OVC,,0.00,107.0,WeatherDisplay:10.37,2013-11-17 19:47:00,
2013-11-17 14:52:00,59.2,52.3,29.97,SSE,157,12.4,16.1,78,0.00,OVC,,0.00,100.0,WeatherDisplay:10.37,2013-11-17 19:52:00,
2013-11-17 14:57:00,59.2,52.3,29.97,SE,132,14.4,20.7,78,0.00,OVC,,0.00,88.0,WeatherDisplay:10.37,2013-11-17 19:57:00,
2013-11-17 15:02:00,59.0,52.1,29.96,SSE,148,15.7,19.5,78,0.00,OVC,,0.00,81.0,WeatherDisplay:10.37,2013-11-17 20:02:00,
2013-11-17 15:07:00,59.0,52.1,29.96,SE,136,13.1,18.0,78,0.00,OVC,,0.00,79.0,WeatherDisplay:10.37,2013-11-17 20:07:00,
2013-11-17 15:12:00,58.9,52.1,29.96,SSE,167,10.2,13.8,78,0.00,OVC,,0.00,70.0,WeatherDisplay:10.37,2013-11-17 20:12:00,
2013-11-17 15:17:00,58.9,52.4,29.95,SSE,151,10.8,15.0,79,0.00,OVC,,0.00,63.0,WeatherDisplay:10.37,2013-11-17 20:17:00,
2013-11-17 15:22:00,58.7,52.2,29.95,SE,142,13.0,15.0,79,0.00,OVC,,0.00,67.0,WeatherDisplay:10.37,2013-11-17 20:22:00,
2013-11-17 15:27:00,58.7,52.2,29.95,SE,142,19.0,19.6,79,0.00,OVC,,0.00,60.0,WeatherDisplay:10.37,2013-11-17 20:27:00,
2013-11-17 15:32:00,58.6,52.4,29.95,SE,142,11.0,18.4,80,0.00,OVC,,0.00,53.0,WeatherDisplay:10.37,2013-11-17 20:32:00,
2013-11-17 15:37:00,58.6,52.4,29.95,SE,128,11.7,18.4,80,0.00,OVC,,0.00,51.0,WeatherDisplay:10.37,2013-11-17 20:37:00,
2013-11-17 15:42:00,58.6,52.1,29.95,SSE,147,12.2,15.0,79,0.00,OVC,,0.00,49.0,WeatherDisplay:10.37,2013-11-17 20:42:00,
2013-11-17 15:47:00,58.4,52.6,29.95,SE,143,9.5,16.5,81,0.00,OVC,,0.00,44.0,WeatherDisplay:10.37,2013-11-17 20:47:00,
2013-11-17 15:52:00,58.4,52.6,29.95,SE,136,11.1,16.1,81,0.00,OVC,,0.00,44.0,WeatherDisplay:10.37,2013-11-17 20:52:00,
2013-11-17 15:57:00,58.4,52.6,29.95,SSE,151,19.0,19.6,81,0.00,OVC,,0.00,40.0,WeatherDisplay:10.37,2013-11-17 20:57:00,
2013-11-17 16:02:00,58.4,52.6,29.95,SE,144,17.2,20.7,81,0.00,OVC,,0.00,33.0,WeatherDisplay:10.37,2013-11-17 21:02:00,
2013-11-17 16:07:00,58.4,52.3,29.95,SE,146,10.6,15.0,80,0.00,OVC,,0.00,39.0,WeatherDisplay:10.37,2013-11-17 21:07:00,
2013-11-17 16:12:00,58.4,52.6,29.95,South,181,9.9,13.8,81,0.00,OVC,,0.00,39.0,WeatherDisplay:10.37,2013-11-17 21:12:00,
2013-11-17 16:17:00,58.6,52.8,29.94,SSE,166,10.7,15.0,81,0.00,OVC,,0.00,37.0,WeatherDisplay:10.37,2013-11-17 21:17:00,
2013-11-17 16:22:00,58.6,53.1,29.94,SE,138,8.3,16.5,82,0.00,OVC,,0.00,21.0,WeatherDisplay:10.37,2013-11-17 21:22:00,
2013-11-17 16:27:00,58.6,53.1,29.93,SSE,158,10.3,13.8,82,0.00,OVC,,0.00,16.0,WeatherDisplay:10.37,2013-11-17 21:27:00,
2013-11-17 16:32:00,58.6,53.1,29.94,SE,145,8.7,12.0,82,0.00,OVC,,0.00,7.0,WeatherDisplay:10.37,2013-11-17 21:32:00,
2013-11-17 16:37:00,58.6,52.8,29.93,SE,127,13.5,16.1,81,0.00,OVC,,0.00,0.0,WeatherDisplay:10.37,2013-11-17 21:37:00,
2013-11-17 16:42:00,58.6,52.8,29.92,SSE,160,11.5,16.5,81,0.00,OVC,,0.00,0.0,WeatherDisplay:10.37,2013-11-17 21:42:00,
2013-11-17 16:47:00,58.6,53.1,29.92,SE,129,16.6,19.6,82,0.00,OVC,,0.00,0.0,WeatherDisplay:10.37,2013-11-17 21:47:00,
2013-11-17 16:52:00,58.7,53.2,29.92,SSE,147,15.5,16.5,82,0.00,OVC,,0.00,0.0,WeatherDisplay:10.37,2013-11-17 21:52:00,
2013-11-17 16:57:00,58.7,53.2,29.92,SSE,150,10.4,18.4,82,0.00,OVC,,0.00,0.0,WeatherDisplay:10.37,2013-11-17 21:57:00,
2013-11-17 17:02:00,58.9,53.1,29.92,SE,145,16.0,18.4,81,0.00,OVC,,0.00,0.0,WeatherDisplay:10.37,2013-11-17 22:02:00,
2013-11-17 17:07:00,58.9,53.1,29.92,SSE,156,12.6,15.0,81,0.00,OVC,,0.00,0.0,WeatherDisplay:10.37,2013-11-17 22:07:00,
2013-11-17 17:12:00,58.9,53.1,29.92,SE,140,8.3,15.0,81,0.00,OVC,,0.00,0.0,WeatherDisplay:10.37,2013-11-17 22:12:00,
2013-11-17 17:17:00,58.9,53.1,29.92,SE,138,10.1,19.5,81,0.00,OVC,,0.00,0.0,WeatherDisplay:10.37,2013-11-17 22:17:00,
2013-11-17 17:22:00,59.0,53.2,29.92,SSE,165,12.0,15.0,81,0.00,OVC,,0.00,0.0,WeatherDisplay:10.37,2013-11-17 22:22:00,
2013-11-17 17:27:00,59.0,53.2,29.91,SE,142,11.8,19.6,81,0.00,OVC,,0.00,0.0,WeatherDisplay:10.37,2013-11-17 22:27:00,
2013-11-17 17:32:00,59.2,53.4,29.92,SE,144,7.6,13.8,81,0.00,OVC,,0.00,0.0,WeatherDisplay:10.37,2013-11-17 22:32:00,
2013-11-17 17:37:00,59.0,53.2,29.91,SE,142,15.0,15.0,81,0.00,OVC,,0.00,0.0,WeatherDisplay:10.37,2013-11-17 22:37:00,
2013-11-17 17:42:00,59.2,53.4,29.90,SSE,149,10.5,15.0,81,0.00,OVC,,0.00,0.0,WeatherDisplay:10.37,2013-11-17 22:42:00,
2013-11-17 17:47:00,59.2,53.4,29.90,SSE,148,13.8,16.1,81,0.00,OVC,,0.00,0.0,WeatherDisplay:10.37,2013-11-17 22:47:00,
2013-11-17 17:52:00,59.2,53.4,29.90,SSE,148,7.6,15.0,81,0.00,OVC,,0.00,0.0,WeatherDisplay:10.37,2013-11-17 22:52:00,
2013-11-17 17:57:00,59.2,53.4,29.90,SSE,165,10.6,13.8,81,0.00,OVC,,0.00,0.0,WeatherDisplay:10.37,2013-11-17 22:57:00,
2013-11-17 18:02:00,59.2,53.4,29.90,SSE,147,11.7,15.0,81,0.00,OVC,,0.00,0.0,WeatherDisplay:10.37,2013-11-17 23:02:00,
2013-11-17 18:07:00,59.2,53.0,29.90,SSE,148,16.0,19.5,80,0.00,OVC,,0.00,0.0,WeatherDisplay:10.37,2013-11-17 23:07:00,
2013-11-17 18:12:00,59.3,53.1,29.89,SSE,159,15.6,18.4,80,0.00,OVC,,0.00,0.0,WeatherDisplay:10.37,2013-11-17 23:12:00,
2013-11-17 18:17:00,59.5,53.3,29.89,SE,146,14.0,21.0,80,0.00,OVC,,0.00,0.0,WeatherDisplay:10.37,2013-11-17 23:17:00,
2013-11-17 18:22:00,59.6,53.1,29.89,SE,134,11.3,21.0,79,0.00,OVC,,0.00,0.0,WeatherDisplay:10.37,2013-11-17 23:22:00,
2013-11-17 18:27:00,59.8,53.3,29.89,SSE,161,11.7,15.0,79,0.00,OVC,,0.00,0.0,WeatherDisplay:10.37,2013-11-17 23:27:00,
2013-11-17 18:32:00,59.9,53.0,29.88,SSE,153,19.3,24.2,78,0.00,OVC,,0.00,0.0,WeatherDisplay:10.37,2013-11-17 23:32:00,
2013-11-17 18:37:00,60.1,53.2,29.89,South,178,8.0,18.4,78,0.00,OVC,,0.00,0.0,WeatherDisplay:10.37,2013-11-17 23:37:00,
2013-11-17 18:42:00,60.1,53.2,29.88,SE,130,12.2,18.4,78,0.00,OVC,,0.00,0.0,WeatherDisplay:10.37,2013-11-17 23:42:00,
2013-11-17 18:47:00,60.2,53.0,29.88,SW,230,14.2,20.7,77,0.00,OVC,,0.00,0.0,WeatherDisplay:10.37,2013-11-17 23:47:00,
2013-11-17 18:52:00,60.4,53.2,29.89,SE,146,14.0,19.6,77,0.00,OVC,,0.00,0.0,WeatherDisplay:10.37,2013-11-17 23:52:00,
2013-11-17 18:57:00,60.4,53.2,29.88,SSE,155,19.2,24.0,77,0.00,OVC,,0.00,0.0,WeatherDisplay:10.37,2013-11-17 23:57:00,
2013-11-17 19:02:00,60.5,53.3,29.88,SSE,148,15.3,23.0,77,0.00,OVC,,0.00,0.0,WeatherDisplay:10.37,2013-11-18 00:02:00,
2013-11-17 19:07:00,60.5,53.3,29.88,SE,135,17.7,19.6,77,0.00,OVC,,0.00,0.0,WeatherDisplay:10.37,2013-11-18 00:07:00,
2013-11-17 19:12:00,60.7,53.1,29.88,SE,142,10.3,15.0,76,0.00,OVC,,0.00,0.0,WeatherDisplay:10.37,2013-11-18 00:12:00,
2013-11-17 19:17:00,60.7,53.1,29.88,South,171,7.0,19.6,76,0.00,OVC,,0.00,0.0,WeatherDisplay:10.37,2013-11-18 00:17:00,
2013-11-17 19:22:00,61.0,53.4,29.88,SSE,159,11.1,15.0,76,0.00,OVC,,0.00,0.0,WeatherDisplay:10.37,2013-11-18 00:22:00,
2013-11-17 19:27:00,61.3,52.9,29.88,SE,146,16.6,27.0,74,0.00,OVC,,0.00,0.0,WeatherDisplay:10.37,2013-11-18 00:27:00,
2013-11-17 19:32:00,61.6,53.2,29.87,South,171,15.5,24.2,74,0.00,OVC,,0.00,0.0,WeatherDisplay:10.37,2013-11-18 00:32:00,
2013-11-17 19:37:00,61.8,53.1,29.85,SE,141,12.4,21.0,73,0.00,OVC,,0.00,0.0,WeatherDisplay:10.37,2013-11-18 00:37:00,
2013-11-17 19:42:00,61.8,53.1,29.84,SSE,161,19.8,24.2,73,0.00,OVC,,0.00,0.0,WeatherDisplay:10.37,2013-11-18 00:42:00,
2013-11-17 19:47:00,61.8,53.1,29.84,SE,133,13.2,20.7,73,0.00,OVC,,0.00,0.0,WeatherDisplay:10.37,2013-11-18 00:47:00,
2013-11-17 19:52:00,61.6,53.2,29.83,SSE,150,13.9,21.0,74,0.00,OVC,,0.00,0.0,WeatherDisplay:10.37,2013-11-18 00:52:00,
2013-11-17 19:57:00,61.2,53.2,29.82,ESE,103,6.9,8.1,75,0.00,OVC,,0.00,0.0,WeatherDisplay:10.37,2013-11-18 00:57:00,
2013-11-17 20:02:00,60.9,53.6,29.81,SE,146,10.9,23.0,77,0.00,OVC,,0.00,0.0,WeatherDisplay:10.37,2013-11-18 01:02:00,
2013-11-17 20:07:00,60.5,53.6,29.81,SSE,153,14.6,19.6,78,0.00,OVC,,0.00,0.0,WeatherDisplay:10.37,2013-11-18 01:07:00,
2013-11-17 20:12:00,60.2,53.7,29.82,SSE,150,16.3,18.0,79,0.00,OVC,,0.00,0.0,WeatherDisplay:10.37,2013-11-18 01:12:00,
2013-11-17 20:17:00,60.2,54.0,29.82,SSE,156,13.7,16.5,80,0.00,OVC,,0.00,0.0,WeatherDisplay:10.37,2013-11-18 01:17:00,
2013-11-17 20:22:00,60.1,53.9,29.82,South,171,13.6,16.5,80,0.00,OVC,,0.00,0.0,WeatherDisplay:10.37,2013-11-18 01:22:00,
2013-11-17 20:27:00,60.1,54.2,29.81,SE,134,12.9,16.1,81,0.00,OVC,,0.00,0.0,WeatherDisplay:10.37,2013-11-18 01:27:00,
2013-11-17 20:32:00,60.1,54.2,29.81,SSE,157,15.1,21.0,81,0.00,OVC,,0.00,0.0,WeatherDisplay:10.37,2013-11-18 01:32:00,
2013-11-17 20:37:00,60.1,54.2,29.82,SE,142,14.8,16.5,81,0.00,OVC,,0.00,0.0,WeatherDisplay:10.37,2013-11-18 01:37:00,
2013-11-17 20:42:00,60.1,54.6,29.82,SE,129,14.2,23.0,82,0.00,OVC,,0.00,0.0,WeatherDisplay:10.37,2013-11-18 01:42:00,
2013-11-17 20:47:00,60.2,54.3,29.82,SSE,159,12.5,19.6,81,0.00,OVC,,0.00,0.0,WeatherDisplay:10.37,2013-11-18 01:47:00,
2013-11-17 20:52:00,60.4,54.5,29.80,SE,133,12.0,15.0,81,0.00,OVC,,0.00,0.0,WeatherDisplay:10.37,2013-11-18 01:52:00,
2013-11-17 20:57:00,60.4,54.5,29.80,SSE,157,9.6,19.6,81,0.00,OVC,,0.00,0.0,WeatherDisplay:10.37,2013-11-18 01:57:00,
2013-11-17 21:02:00,60.2,54.3,29.79,SSE,153,6.7,9.2,81,0.00,OVC,,0.00,0.0,WeatherDisplay:10.37,2013-11-18 02:02:00,
2013-11-17 21:07:00,60.1,54.2,29.78,SE,140,12.7,23.0,81,0.00,OVC,,0.00,0.0,WeatherDisplay:10.37,2013-11-18 02:07:00,
2013-11-17 21:12:00,60.1,54.2,29.78,SSW,195,11.8,13.8,81,0.00,OVC,,0.00,0.0,WeatherDisplay:10.37,2013-11-18 02:12:00,
2013-11-17 21:17:00,60.1,54.2,29.78,SSE,155,11.6,16.1,81,0.00,OVC,,0.00,0.0,WeatherDisplay:10.37,2013-11-18 02:17:00,
2013-11-17 21:22:00,60.2,54.3,29.78,SE,142,11.6,23.0,81,0.00,OVC,,0.00,0.0,WeatherDisplay:10.37,2013-11-18 02:22:00,
2013-11-17 21:27:00,60.2,54.3,29.78,SE,136,16.5,23.0,81,0.00,OVC,,0.00,0.0,WeatherDisplay:10.37,2013-11-18 02:27:00,
2013-11-17 21:32:00,60.4,54.5,29.78,SE,134,12.5,16.1,81,0.00,OVC,,0.00,0.0,WeatherDisplay:10.37,2013-11-18 02:32:00,
2013-11-17 21:37:00,60.4,54.5,29.78,SSE,148,18.1,19.6,81,0.00,OVC,,0.00,0.0,WeatherDisplay:10.37,2013-11-18 02:37:00,
2013-11-17 21:42:00,60.4,54.5,29.78,SSE,148,9.2,16.1,81,0.00,OVC,,0.00,0.0,WeatherDisplay:10.37,2013-11-18 02:42:00,
2013-11-17 21:47:00,60.4,54.5,29.78,SSE,165,6.2,11.5,81,0.00,OVC,,0.00,0.0,WeatherDisplay:10.37,2013-11-18 02:47:00,
2013-11-17 21:52:00,60.5,54.6,29.76,SSE,153,10.9,16.5,81,0.00,OVC,,0.00,0.0,WeatherDisplay:10.37,2013-11-18 02:52:00,
2013-11-17 21:57:00,60.7,54.5,29.76,SE,141,18.4,18.4,80,0.00,OVC,,0.00,0.0,WeatherDisplay:10.37,2013-11-18 02:57:00,
2013-11-17 22:02:00,60.9,54.7,29.76,South,177,12.6,23.0,80,0.00,-RA,,0.00,0.0,WeatherDisplay:10.37,2013-11-18 03:02:00,
2013-11-17 22:07:00,61.0,54.4,29.76,SSE,147,12.6,18.0,79,0.00,-RA,,0.00,0.0,WeatherDisplay:10.37,2013-11-18 03:07:00,
2013-11-17 22:12:00,61.2,54.3,29.74,SSE,151,18.0,23.0,78,0.00,-RA,,0.00,0.0,WeatherDisplay:10.37,2013-11-18 03:12:00,
2013-11-17 22:17:00,61.3,54.4,29.74,South,171,11.3,16.5,78,0.00,-RA,,0.00,0.0,WeatherDisplay:10.37,2013-11-18 03:17:00,
2013-11-17 22:22:00,61.3,54.4,29.74,SSW,213,11.4,18.4,78,0.00,-RA,,0.00,0.0,WeatherDisplay:10.37,2013-11-18 03:22:00,
2013-11-17 22:27:00,61.5,54.6,29.75,SSW,197,6.2,10.4,78,0.00,-RA,,0.00,0.0,WeatherDisplay:10.37,2013-11-18 03:27:00,
2013-11-17 22:32:00,61.6,54.7,29.74,SSE,153,17.6,21.0,78,0.00,-RA,,0.00,0.0,WeatherDisplay:10.37,2013-11-18 03:32:00,
2013-11-17 22:37:00,61.8,54.5,29.75,SW,225,18.1,25.3,77,0.00,-RA,,0.00,0.0,WeatherDisplay:10.37,2013-11-18 03:37:00,
2013-11-17 22:42:00,61.8,54.5,29.74,SSE,159,10.3,16.5,77,0.00,-RA,,0.00,0.0,WeatherDisplay:10.37,2013-11-18 03:42:00,
2013-11-17 22:47:00,62.0,54.7,29.73,SE,144,19.3,22.5,77,0.00,-RA,,0.00,0.0,WeatherDisplay:10.37,2013-11-18 03:47:00,
2013-11-17 22:52:00,62.0,54.7,29.73,SSE,154,21.9,24.2,77,0.00,-RA,,0.00,0.0,WeatherDisplay:10.37,2013-11-18 03:52:00,
2013-11-17 22:57:00,62.0,54.7,29.71,SE,140,10.5,13.5,77,0.00,-RA,,0.00,0.0,WeatherDisplay:10.37,2013-11-18 03:57:00,
2013-11-17 23:02:00,62.0,55.1,29.71,SSE,150,15.5,19.6,78,0.00,-RA,,0.00,0.0,WeatherDisplay:10.37,2013-11-18 04:02:00,
2013-11-17 23:07:00,62.3,55.0,29.71,ESE,115,17.6,24.2,77,0.00,-RA,,0.00,0.0,WeatherDisplay:10.37,2013-11-18 04:07:00,
2013-11-17 23:12:00,62.4,55.1,29.71,SW,214,14.6,18.4,77,0.00,-RA,,0.00,0.0,WeatherDisplay:10.37,2013-11-18 04:12:00,
2013-11-17 23:17:00,62.6,55.3,29.71,SSW,209,19.0,24.2,77,0.00,-RA,,0.00,0.0,WeatherDisplay:10.37,2013-11-18 04:17:00,
2013-11-17 23:22:00,62.9,55.2,29.71,SSW,213,20.3,24.0,76,0.00,-RA,,0.00,0.0,WeatherDisplay:10.37,2013-11-18 04:22:00,
2013-11-17 23:27:00,63.1,56.5,29.70,SW,225,14.4,24.2,79,0.00,-RA,,0.00,0.0,WeatherDisplay:10.37,2013-11-18 04:27:00,
2013-11-17 23:32:00,63.2,55.1,29.69,South,177,22.7,31.5,75,0.00,-RA,,0.00,0.0,WeatherDisplay:10.37,2013-11-18 04:32:00,
2013-11-17 23:37:00,63.1,55.0,29.68,SW,225,15.8,24.2,75,0.00,-RA,,0.00,0.0,WeatherDisplay:10.37,2013-11-18 04:37:00,
2013-11-17 23:42:00,63.1,55.0,29.68,SW,231,15.0,18.0,75,0.00,-RA,,0.00,0.0,WeatherDisplay:10.37,2013-11-18 04:42:00,
2013-11-17 23:47:00,63.1,55.0,29.67,SE,140,12.6,19.5,75,0.00,-RA,,0.00,0.0,WeatherDisplay:10.37,2013-11-18 04:47:00,
2013-11-17 23:52:00,63.1,55.0,29.68,WSW,242,12.0,18.4,75,0.00,OVC,,0.00,0.0,WeatherDisplay:10.37,2013-11-18 04:52:00,
2013-11-17 23:57:00,63.2,55.1,29.67,SE,140,17.8,20.7,75,0.00,OVC,,0.00,0.0,WeatherDisplay:10.37,2013-11-18 04:57:00,